Time;durP1;ratioP1;P1;durP2;ratioP2;P2;SDS_P1;SDS_P2;PMS_P1;PMS_P2;Temp;Humidity;BMP_temperature;BMP_pressure;BME280_temperature;BME280_humidity;BME280_pressure;Samples;Min_cycle;Max_cycle;Signal;HPM_P1;HPM_P2
2023/04/28 00:01:39;;;;;;;8.50;4.73;;;9.70;99.90;;;;;;5035850;28;20160;-78
2023/04/28 00:04:04;;;;;;;8.50;5.20;;;9.60;99.90;;;;;;5035640;28;20172;-77
2023/04/28 00:06:30;;;;;;;8.33;5.53;;;9.60;99.90;;;;;;5034228;28;20193;-77
2023/04/28 00:08:55;;;;;;;8.40;4.80;;;9.60;99.90;;;;;;5034186;28;20168;-77
2023/04/28 00:11:21;;;;;;;8.30;5.37;;;9.50;99.90;;;;;;5035557;28;20172;-77
2023/04/28 00:13:46;;;;;;;6.80;5.60;;;9.50;99.90;;;;;;5034023;28;20223;-77
2023/04/28 00:16:12;;;;;;;7.97;5.73;;;9.40;99.90;;;;;;5035828;28;20541;-77
2023/04/28 00:18:37;;;;;;;12.57;5.83;;;9.40;99.90;;;;;;5035563;28;20681;-77
2023/04/28 00:21:03;;;;;;;8.47;5.87;;;9.40;99.90;;;;;;5035307;28;20173;-77
2023/04/28 00:23:29;;;;;;;8.80;5.27;;;9.30;99.90;;;;;;5035298;28;20203;-77
2023/04/28 00:25:56;;;;;;;8.57;5.43;;;9.40;99.90;;;;;;5035314;28;20188;-77
2023/04/28 00:28:22;;;;;;;7.60;5.60;;;9.30;99.90;;;;;;5035257;28;20188;-77
2023/04/28 00:30:47;;;;;;;8.40;5.80;;;9.30;99.90;;;;;;5035009;28;20669;-77
2023/04/28 00:33:13;;;;;;;7.67;5.00;;;9.30;99.90;;;;;;5029957;28;20187;-77
2023/04/28 00:35:40;;;;;;;7.33;5.70;;;9.30;99.90;;;;;;5031894;28;20197;-77
2023/04/28 00:38:06;;;;;;;11.77;5.80;;;9.30;99.90;;;;;;5031947;28;20220;-77
2023/04/28 00:40:36;;;;;;;13.30;5.77;;;9.20;99.90;;;;;;5031942;28;20616;-77
2023/04/28 00:43:02;;;;;;;12.10;6.50;;;9.20;99.90;;;;;;5030741;28;20169;-78
2023/04/28 00:45:28;;;;;;;8.80;6.07;;;9.20;99.90;;;;;;5031780;28;20547;-78
2023/04/28 00:47:55;;;;;;;8.97;5.80;;;9.20;99.90;;;;;;5031887;28;20229;-77
2023/04/28 00:50:21;;;;;;;8.67;6.10;;;9.20;99.90;;;;;;5031562;28;20181;-77
2023/04/28 00:52:46;;;;;;;7.17;5.57;;;9.20;99.90;;;;;;5031663;28;20173;-77
2023/04/28 00:55:15;;;;;;;10.27;6.23;;;9.30;99.90;;;;;;5030237;28;20184;-78
2023/04/28 00:57:41;;;;;;;8.87;6.43;;;9.20;99.90;;;;;;5030364;28;20281;-78
2023/04/28 01:00:07;;;;;;;8.23;5.87;;;9.10;99.90;;;;;;5031564;28;20161;-78
2023/04/28 01:02:34;;;;;;;7.77;6.10;;;9.20;99.90;;;;;;5031878;28;20592;-78
2023/04/28 01:05:01;;;;;;;9.27;6.60;;;9.20;99.90;;;;;;5030409;28;20168;-78
2023/04/28 01:07:27;;;;;;;9.97;6.30;;;9.10;99.90;;;;;;5031836;28;20647;-77
2023/04/28 01:09:53;;;;;;;8.50;6.20;;;9.10;99.90;;;;;;5030602;28;20176;-78
2023/04/28 01:12:18;;;;;;;9.17;6.57;;;9.10;99.90;;;;;;5031987;28;20690;-79
2023/04/28 01:14:44;;;;;;;8.20;6.97;;;9.10;99.90;;;;;;5030551;28;20198;-78
2023/04/28 01:17:10;;;;;;;12.33;7.57;;;9.10;99.90;;;;;;5030578;28;20206;-78
2023/04/28 01:19:35;;;;;;;12.77;7.40;;;9.10;99.90;;;;;;5031004;28;20203;-78
2023/04/28 01:22:01;;;;;;;11.80;8.03;;;9.10;99.90;;;;;;5031917;28;20200;-79
2023/04/28 01:24:26;;;;;;;8.87;7.10;;;9.10;99.90;;;;;;5032264;28;20582;-78
2023/04/28 01:26:52;;;;;;;8.77;7.07;;;9.10;99.90;;;;;;5031285;28;20192;-79
2023/04/28 01:29:17;;;;;;;10.37;6.93;;;9.00;99.90;;;;;;5032320;28;20169;-78
2023/04/28 01:31:43;;;;;;;10.80;6.80;;;9.00;99.90;;;;;;5030880;28;20176;-79
2023/04/28 01:34:08;;;;;;;9.27;6.87;;;9.00;99.90;;;;;;5031050;28;20207;-79
2023/04/28 01:36:34;;;;;;;10.43;8.10;;;9.00;99.90;;;;;;5030510;28;20287;-78
2023/04/28 01:38:59;;;;;;;10.73;7.70;;;9.00;99.90;;;;;;5030821;28;20232;-79
2023/04/28 01:41:25;;;;;;;10.67;8.00;;;9.00;99.90;;;;;;5032515;28;20172;-78
2023/04/28 01:43:51;;;;;;;11.73;7.77;;;9.00;99.90;;;;;;5031776;28;20179;-79
2023/04/28 01:46:16;;;;;;;10.00;7.20;;;9.00;99.90;;;;;;5031314;28;20185;-78
2023/04/28 01:48:42;;;;;;;12.13;7.90;;;9.00;99.90;;;;;;5031251;28;20202;-78
2023/04/28 01:51:07;;;;;;;16.60;7.70;;;9.00;99.90;;;;;;5030916;28;20177;-79
2023/04/28 01:53:33;;;;;;;13.13;7.80;;;9.00;99.90;;;;;;5032598;28;20226;-79
2023/04/28 01:55:58;;;;;;;11.33;7.60;;;9.00;99.90;;;;;;5031404;28;20235;-79
2023/04/28 01:58:24;;;;;;;9.67;7.80;;;9.00;99.90;;;;;;5031270;28;20206;-79
2023/04/28 02:00:50;;;;;;;11.43;7.60;;;8.90;99.90;;;;;;5030867;28;20260;-78
2023/04/28 02:03:15;;;;;;;11.60;8.33;;;9.00;99.90;;;;;;5032811;28;20176;-78
2023/04/28 02:05:41;;;;;;;11.40;8.27;;;9.00;99.90;;;;;;5031292;28;20289;-79
2023/04/28 02:08:06;;;;;;;12.30;8.50;;;9.00;99.90;;;;;;5032218;28;20675;-79
2023/04/28 02:10:32;;;;;;;11.17;7.90;;;9.00;99.90;;;;;;5032233;28;20187;-79
2023/04/28 02:12:57;;;;;;;11.70;7.87;;;9.00;99.90;;;;;;5030620;28;20184;-79
2023/04/28 02:15:23;;;;;;;14.40;8.93;;;8.90;99.90;;;;;;5030898;28;20286;-78
2023/04/28 02:17:48;;;;;;;13.53;8.67;;;8.90;99.90;;;;;;5030282;28;20367;-78
2023/04/28 02:20:14;;;;;;;11.93;8.03;;;8.90;99.90;;;;;;5030349;28;20176;-78
2023/04/28 02:22:40;;;;;;;14.33;8.90;;;8.90;99.90;;;;;;5029852;28;20663;-78
2023/04/28 02:25:06;;;;;;;13.27;8.13;;;9.00;99.90;;;;;;5030877;28;20644;-78
2023/04/28 02:27:35;;;;;;;13.13;8.97;;;8.90;99.90;;;;;;5029487;28;20558;-78
2023/04/28 02:30:04;;;;;;;12.53;7.93;;;8.90;99.90;;;;;;5030912;28;20639;-79
2023/04/28 02:32:30;;;;;;;13.07;8.13;;;8.90;99.90;;;;;;5029735;28;20181;-78
2023/04/28 02:34:56;;;;;;;10.57;8.30;;;8.90;99.90;;;;;;5031000;28;20172;-79
2023/04/28 02:37:21;;;;;;;15.67;9.10;;;9.00;99.90;;;;;;5029163;28;20200;-78
2023/04/28 02:39:47;;;;;;;11.63;8.47;;;8.90;99.90;;;;;;5031034;28;20176;-79
2023/04/28 02:42:13;;;;;;;14.13;8.43;;;9.00;99.90;;;;;;5030881;28;20194;-78
2023/04/28 02:44:38;;;;;;;17.00;8.93;;;9.00;99.90;;;;;;5029998;28;20662;-78
2023/04/28 02:47:04;;;;;;;10.77;8.30;;;9.00;99.90;;;;;;5030345;28;20271;-79
2023/04/28 02:49:30;;;;;;;16.07;9.10;;;9.00;99.90;;;;;;5031519;28;20172;-78
2023/04/28 02:51:55;;;;;;;13.27;8.53;;;9.00;99.90;;;;;;5030819;28;20221;-79
2023/04/28 02:54:26;;;;;;;15.47;8.40;;;9.00;99.90;;;;;;5030201;28;20590;-78
2023/04/28 02:56:53;;;;;;;13.23;8.90;;;9.00;99.90;;;;;;5031954;28;20206;-79
2023/04/28 02:59:19;;;;;;;12.37;8.97;;;9.10;99.90;;;;;;5032276;28;20218;-79
2023/04/28 03:01:45;;;;;;;13.03;9.27;;;9.10;99.90;;;;;;5030176;28;20172;-79
2023/04/28 03:04:10;;;;;;;12.73;8.47;;;9.10;99.90;;;;;;5030765;28;20173;-78
2023/04/28 03:06:36;;;;;;;16.07;9.20;;;9.00;99.90;;;;;;5031606;28;20219;-78
2023/04/28 03:09:02;;;;;;;12.73;8.20;;;9.10;99.90;;;;;;5030002;28;20184;-79
2023/04/28 03:11:28;;;;;;;10.37;8.03;;;9.10;99.90;;;;;;5030914;28;20175;-79
2023/04/28 03:13:53;;;;;;;12.00;8.70;;;9.10;99.90;;;;;;5031080;28;20263;-79
2023/04/28 03:16:19;;;;;;;13.20;8.50;;;9.10;99.90;;;;;;5029742;28;20286;-78
2023/04/28 03:18:45;;;;;;;12.17;7.47;;;9.10;99.90;;;;;;5031163;28;20192;-79
2023/04/28 03:21:10;;;;;;;13.77;8.43;;;9.10;99.90;;;;;;5029390;28;20283;-79
2023/04/28 03:23:36;;;;;;;11.80;8.10;;;9.20;99.90;;;;;;5030651;28;20602;-78
2023/04/28 03:26:01;;;;;;;9.53;7.73;;;9.20;99.90;;;;;;5030770;28;20652;-79
2023/04/28 03:28:27;;;;;;;11.53;8.87;;;9.20;99.90;;;;;;5030756;28;20284;-79
2023/04/28 03:30:52;;;;;;;12.07;8.37;;;9.20;99.90;;;;;;5029031;28;20168;-79
2023/04/28 03:33:18;;;;;;;10.70;8.50;;;9.30;99.90;;;;;;5030769;28;20185;-78
2023/04/28 03:35:43;;;;;;;9.37;7.57;;;9.20;99.90;;;;;;5028765;28;20222;-79
2023/04/28 03:38:09;;;;;;;10.97;8.30;;;9.30;99.90;;;;;;5029821;28;20279;-78
2023/04/28 03:40:35;;;;;;;10.37;7.90;;;9.30;99.90;;;;;;5030589;28;20255;-79
2023/04/28 03:43:01;;;;;;;12.43;8.13;;;9.30;99.90;;;;;;5029389;28;20177;-79
2023/04/28 03:45:26;;;;;;;14.03;7.83;;;9.30;99.90;;;;;;5029226;28;20393;-79
2023/04/28 03:47:52;;;;;;;15.10;8.53;;;9.30;99.90;;;;;;5030710;28;20184;-79
2023/04/28 03:50:18;;;;;;;13.60;8.80;;;9.30;99.90;;;;;;5030318;28;20168;-78
2023/04/28 03:52:43;;;;;;;14.13;8.37;;;9.30;99.90;;;;;;5030803;28;20173;-79
2023/04/28 03:55:09;;;;;;;10.53;7.93;;;9.40;99.90;;;;;;5028973;28;20177;-78
2023/04/28 03:57:35;;;;;;;11.23;7.90;;;9.40;99.90;;;;;;5029118;28;20639;-79
2023/04/28 04:00:00;;;;;;;11.43;7.83;;;9.40;99.90;;;;;;5029789;28;20220;-78
2023/04/28 04:02:26;;;;;;;12.13;7.80;;;9.40;99.90;;;;;;5029210;28;20259;-79
2023/04/28 04:04:52;;;;;;;11.13;8.33;;;9.40;99.90;;;;;;5029737;28;20240;-79
2023/04/28 04:07:17;;;;;;;12.80;8.10;;;9.40;99.90;;;;;;5032792;28;20195;-78
2023/04/28 04:09:43;;;;;;;11.77;8.10;;;9.40;99.90;;;;;;5034252;28;20179;-78
2023/04/28 04:12:08;;;;;;;10.20;8.10;;;9.40;99.90;;;;;;5033205;28;20194;-79
2023/04/28 04:14:34;;;;;;;11.27;8.13;;;9.50;99.90;;;;;;5033997;28;20168;-78
2023/04/28 04:17:00;;;;;;;12.87;8.50;;;9.50;99.90;;;;;;5032562;28;20667;-79
2023/04/28 04:19:26;;;;;;;13.40;7.77;;;9.50;99.90;;;;;;5034113;28;20214;-79
2023/04/28 04:21:52;;;;;;;11.83;7.47;;;9.50;99.90;;;;;;5032519;28;20180;-78
2023/04/28 04:24:17;;;;;;;13.03;7.93;;;9.60;99.90;;;;;;5032264;28;20184;-78
2023/04/28 04:26:43;;;;;;;12.80;8.17;;;9.60;99.90;;;;;;5032580;28;20188;-78
2023/04/28 04:29:09;;;;;;;12.33;7.60;;;9.60;99.90;;;;;;5028757;28;20230;-79
2023/04/28 04:31:35;;;;;;;11.10;8.07;;;9.60;99.90;;;;;;5028334;28;20264;-79
2023/04/28 04:34:00;;;;;;;12.10;7.70;;;9.60;99.90;;;;;;5014231;28;20193;-80
2023/04/28 04:36:26;;;;;;;12.13;7.80;;;9.70;99.90;;;;;;5031899;28;20698;-78
2023/04/28 04:38:51;;;;;;;12.10;7.70;;;9.70;99.90;;;;;;5032061;28;20204;-78
2023/04/28 04:41:20;;;;;;;10.40;8.13;;;9.70;99.90;;;;;;5024098;28;20711;-78
2023/04/28 04:43:46;;;;;;;9.97;7.97;;;9.70;99.90;;;;;;5019973;28;20636;-78
2023/04/28 04:46:12;;;;;;;8.60;7.10;;;9.70;99.90;;;;;;5031686;28;20337;-78
2023/04/28 04:48:38;;;;;;;11.77;8.27;;;9.70;99.90;;;;;;5031915;28;20187;-79
2023/04/28 04:51:03;;;;;;;9.23;7.97;;;9.70;99.90;;;;;;5033840;28;20286;-78
2023/04/28 04:53:29;;;;;;;9.33;7.47;;;9.70;99.90;;;;;;5033491;28;20184;-79
2023/04/28 04:55:55;;;;;;;12.13;7.73;;;9.90;99.90;;;;;;5034190;28;20200;-78
2023/04/28 04:58:20;;;;;;;9.13;7.47;;;9.80;99.90;;;;;;5031394;28;20212;-81
2023/04/28 05:00:46;;;;;;;9.77;7.90;;;9.70;99.90;;;;;;5031451;28;20177;-78
2023/04/28 05:03:14;;;;;;;10.27;8.03;;;9.80;99.90;;;;;;5032424;28;20172;-81
2023/04/28 05:05:39;;;;;;;10.23;7.93;;;9.70;99.90;;;;;;5035294;28;20562;-79
2023/04/28 05:08:05;;;;;;;10.17;7.67;;;9.60;99.90;;;;;;5035594;28;20177;-79
2023/04/28 05:10:30;;;;;;;11.67;7.57;;;9.80;99.90;;;;;;5035079;28;20191;-79
2023/04/28 05:12:56;;;;;;;10.73;7.57;;;9.80;99.90;;;;;;5034855;28;20252;-78
2023/04/28 05:15:22;;;;;;;11.60;7.57;;;9.80;99.90;;;;;;5033478;28;20218;-79
2023/04/28 05:17:47;;;;;;;9.47;7.57;;;9.80;99.90;;;;;;5033652;28;20257;-80
2023/04/28 05:20:13;;;;;;;14.40;8.30;;;9.80;99.90;;;;;;5031918;28;20567;-77
2023/04/28 05:22:39;;;;;;;11.80;8.97;;;9.90;99.90;;;;;;5031341;28;20172;-77
2023/04/28 05:25:05;;;;;;;10.87;7.87;;;9.90;99.90;;;;;;5029816;28;20184;-76
2023/04/28 05:27:31;;;;;;;12.50;8.53;;;9.90;99.90;;;;;;5029798;28;20224;-76
2023/04/28 05:29:56;;;;;;;10.77;7.63;;;9.90;99.90;;;;;;5031170;28;20256;-76
2023/04/28 05:32:22;;;;;;;13.27;8.43;;;10.00;99.90;;;;;;5029711;28;20172;-76
2023/04/28 05:34:47;;;;;;;13.80;8.40;;;10.00;99.90;;;;;;5030981;28;20265;-76
2023/04/28 05:37:13;;;;;;;12.50;8.30;;;10.00;99.90;;;;;;5029528;28;20361;-76
2023/04/28 05:39:38;;;;;;;12.20;9.07;;;10.10;99.90;;;;;;5031386;28;20204;-75
2023/04/28 05:42:04;;;;;;;17.13;8.80;;;10.10;99.90;;;;;;5031681;28;20169;-76
2023/04/28 05:44:30;;;;;;;14.77;8.53;;;10.10;99.90;;;;;;5029795;28;20639;-76
2023/04/28 05:46:56;;;;;;;14.60;8.13;;;10.10;99.90;;;;;;5030794;28;20271;-76
2023/04/28 05:49:21;;;;;;;12.20;7.57;;;10.20;99.90;;;;;;5029475;28;20267;-76
2023/04/28 05:51:47;;;;;;;13.87;8.23;;;10.20;99.90;;;;;;5029542;28;20603;-77
2023/04/28 05:54:12;;;;;;;12.83;8.40;;;10.20;99.90;;;;;;5030786;28;20180;-77
2023/04/28 05:56:38;;;;;;;11.87;8.23;;;10.30;99.90;;;;;;5030666;28;20663;-77
2023/04/28 05:59:03;;;;;;;11.97;8.03;;;10.30;99.90;;;;;;5029309;28;20207;-77
2023/04/28 06:01:32;;;;;;;12.77;8.27;;;10.30;99.90;;;;;;5030945;28;20200;-77
2023/04/28 06:03:57;;;;;;;14.73;7.73;;;10.30;99.90;;;;;;5030597;28;20207;-77
2023/04/28 06:06:24;;;;;;;9.23;7.73;;;10.40;99.90;;;;;;5029224;28;20219;-77
2023/04/28 06:08:49;;;;;;;9.97;7.10;;;10.40;99.90;;;;;;5029288;28;20181;-77
2023/04/28 06:11:15;;;;;;;13.97;7.37;;;10.50;99.90;;;;;;5030768;28;20232;-76
2023/04/28 06:13:41;;;;;;;12.83;7.90;;;10.50;99.90;;;;;;5029014;28;20188;-77
2023/04/28 06:16:07;;;;;;;11.93;8.03;;;10.50;99.90;;;;;;5030493;28;20204;-76
2023/04/28 06:18:32;;;;;;;8.53;7.40;;;10.60;99.90;;;;;;5030270;28;20200;-76
2023/04/28 06:20:58;;;;;;;10.67;7.40;;;10.60;99.90;;;;;;5029030;28;20195;-76
2023/04/28 06:23:24;;;;;;;10.13;7.60;;;10.60;99.90;;;;;;5030228;28;20171;-75
2023/04/28 06:25:49;;;;;;;10.43;7.47;;;10.60;99.90;;;;;;5028751;28;20224;-76
2023/04/28 06:28:15;;;;;;;12.57;7.47;;;10.70;99.90;;;;;;5030204;28;20674;-76
2023/04/28 06:30:40;;;;;;;12.10;7.70;;;10.80;99.90;;;;;;5029333;28;20252;-75
2023/04/28 06:33:06;;;;;;;13.57;7.93;;;10.90;99.90;;;;;;5028880;28;20178;-76
2023/04/28 06:35:35;;;;;;;14.17;8.10;;;10.90;99.90;;;;;;5030000;28;20188;-76
2023/04/28 06:38:01;;;;;;;8.67;7.00;;;11.00;99.90;;;;;;5028670;28;20203;-75
2023/04/28 06:40:26;;;;;;;8.97;6.87;;;11.10;99.90;;;;;;5027941;28;20548;-76
2023/04/28 06:42:52;;;;;;;11.57;6.93;;;11.10;99.90;;;;;;5030190;28;20176;-75
2023/04/28 06:45:18;;;;;;;8.40;6.50;;;11.20;99.90;;;;;;5029862;28;20215;-76
2023/04/28 06:47:43;;;;;;;7.73;6.07;;;11.20;99.90;;;;;;5029205;28;20600;-75
2023/04/28 06:50:09;;;;;;;10.10;5.87;;;11.30;99.90;;;;;;5029938;28;20224;-76
2023/04/28 06:52:37;;;;;;;7.23;5.67;;;11.20;99.90;;;;;;5029363;28;20204;-76
2023/04/28 06:55:04;;;;;;;10.33;6.63;;;11.20;99.90;;;;;;5028429;28;20180;-75
2023/04/28 06:57:29;;;;;;;11.33;6.30;;;11.30;99.90;;;;;;5028240;28;20176;-75
2023/04/28 06:59:55;;;;;;;10.00;6.80;;;11.40;99.90;;;;;;5028284;28;20176;-75
2023/04/28 07:02:20;;;;;;;7.73;6.40;;;11.40;99.90;;;;;;5028374;28;20172;-75
2023/04/28 07:04:46;;;;;;;8.73;6.47;;;11.50;99.90;;;;;;5027714;28;20780;-75
2023/04/28 07:07:12;;;;;;;7.40;5.90;;;11.60;99.90;;;;;;5029656;28;20199;-76
2023/04/28 07:09:37;;;;;;;7.70;5.70;;;11.70;99.90;;;;;;5029475;28;20180;-74
2023/04/28 07:12:06;;;;;;;8.60;5.37;;;11.80;99.90;;;;;;5029369;28;20191;-75
2023/04/28 07:14:31;;;;;;;6.40;5.53;;;11.90;99.90;;;;;;5029489;28;20520;-75
2023/04/28 07:16:57;;;;;;;8.03;5.90;;;11.90;99.90;;;;;;5029283;28;20208;-75
2023/04/28 07:19:23;;;;;;;6.40;4.97;;;12.00;99.90;;;;;;5025557;28;20220;-75
2023/04/28 07:21:48;;;;;;;7.10;5.10;;;12.10;99.90;;;;;;5008073;28;20601;-75
2023/04/28 07:24:14;;;;;;;8.07;5.50;;;12.20;99.90;;;;;;5009565;28;20165;-76
2023/04/28 07:26:40;;;;;;;9.53;5.17;;;12.20;99.90;;;;;;5008778;28;20196;-76
2023/04/28 07:29:07;;;;;;;5.30;4.80;;;12.20;99.90;;;;;;5008653;28;20184;-76
2023/04/28 07:31:33;;;;;;;6.93;5.20;;;12.30;99.90;;;;;;5009540;28;20545;-75
2023/04/28 07:33:59;;;;;;;12.03;5.13;;;12.30;99.90;;;;;;5009534;28;20169;-75
2023/04/28 07:36:24;;;;;;;5.07;4.57;;;12.40;99.90;;;;;;5008574;28;20197;-75
2023/04/28 07:38:50;;;;;;;4.83;4.30;;;12.50;99.90;;;;;;5027385;28;20717;-75
2023/04/28 07:41:17;;;;;;;7.33;5.00;;;12.60;99.90;;;;;;5029526;28;20177;-75
2023/04/28 07:43:43;;;;;;;9.83;4.43;;;12.60;99.90;;;;;;5032804;28;20171;-76
2023/04/28 07:46:09;;;;;;;7.53;5.17;;;12.60;99.90;;;;;;5031389;28;20292;-76
2023/04/28 07:48:35;;;;;;;7.13;4.83;;;12.70;99.90;;;;;;5031332;28;20180;-76
2023/04/28 07:51:01;;;;;;;8.30;4.90;;;12.60;99.90;;;;;;5031853;28;20519;-76
2023/04/28 07:53:26;;;;;;;7.67;4.80;;;12.60;99.90;;;;;;5032511;28;20173;-76
2023/04/28 07:55:53;;;;;;;8.67;5.07;;;12.60;99.90;;;;;;5032388;28;20199;-76
2023/04/28 07:58:18;;;;;;;8.30;5.00;;;12.70;99.90;;;;;;5032835;28;20211;-76
2023/04/28 08:00:44;;;;;;;7.03;5.47;;;12.70;99.90;;;;;;5031141;28;20172;-76
2023/04/28 08:03:10;;;;;;;8.60;5.57;;;12.80;99.90;;;;;;5012764;28;20242;-76
2023/04/28 08:05:36;;;;;;;7.03;4.90;;;12.80;99.90;;;;;;5012759;28;20293;-76
2023/04/28 08:08:02;;;;;;;8.07;5.83;;;12.90;99.90;;;;;;5011311;28;20605;-76
2023/04/28 08:10:28;;;;;;;6.70;5.10;;;12.90;99.90;;;;;;5012505;28;20173;-75
2023/04/28 08:12:53;;;;;;;7.73;5.10;;;12.90;99.90;;;;;;5010935;28;20261;-75
2023/04/28 08:15:19;;;;;;;7.30;5.37;;;13.00;99.90;;;;;;5011036;28;20211;-76
2023/04/28 08:17:45;;;;;;;8.70;5.87;;;13.00;99.90;;;;;;5012560;28;20237;-76
2023/04/28 08:20:11;;;;;;;6.87;5.27;;;13.10;99.90;;;;;;5011095;28;20177;-76
2023/04/28 08:22:36;;;;;;;8.90;4.83;;;13.10;99.90;;;;;;5015119;28;20261;-76
2023/04/28 08:25:02;;;;;;;7.83;5.70;;;13.10;99.90;;;;;;5030721;28;20171;-75
2023/04/28 08:27:27;;;;;;;7.90;5.60;;;13.20;99.90;;;;;;5032428;28;20169;-75
2023/04/28 08:29:53;;;;;;;8.03;5.93;;;13.20;99.90;;;;;;5031929;28;20172;-75
2023/04/28 08:32:18;;;;;;;11.10;5.50;;;13.30;99.90;;;;;;5030950;28;20188;-75
2023/04/28 08:34:44;;;;;;;7.20;5.60;;;13.40;99.90;;;;;;5030632;28;20173;-75
2023/04/28 08:37:09;;;;;;;8.17;5.93;;;13.30;99.90;;;;;;5031814;28;20199;-76
2023/04/28 08:39:35;;;;;;;6.30;5.60;;;13.40;99.90;;;;;;5031720;28;20204;-75
2023/04/28 08:42:04;;;;;;;7.93;5.50;;;13.50;99.90;;;;;;5030847;28;20221;-76
2023/04/28 08:44:39;;;;;;;9.00;5.33;;;13.60;99.90;;;;;;5031694;28;20192;-75
2023/04/28 08:47:12;;;;;;;6.80;5.50;;;13.60;99.90;;;;;;5031649;28;20214;-76
2023/04/28 08:49:38;;;;;;;11.90;5.93;;;13.70;99.90;;;;;;5031650;28;20183;-75
2023/04/28 08:52:12;;;;;;;9.40;5.37;;;13.70;99.90;;;;;;5021408;28;20672;-76
2023/04/28 08:54:39;;;;;;;12.47;6.23;;;13.80;99.90;;;;;;5011832;28;20248;-75
2023/04/28 08:57:08;;;;;;;9.90;6.20;;;13.80;99.90;;;;;;5011718;28;20196;-76
2023/04/28 08:59:34;;;;;;;9.50;5.70;;;13.90;99.90;;;;;;5011675;28;20209;-74
2023/04/28 09:01:59;;;;;;;9.53;5.93;;;13.90;99.90;;;;;;5011726;28;20181;-75
2023/04/28 09:04:25;;;;;;;7.93;6.17;;;13.90;99.90;;;;;;5010317;28;20264;-75
2023/04/28 09:06:50;;;;;;;7.40;5.43;;;13.90;99.90;;;;;;5010275;28;20547;-72
2023/04/28 09:09:29;;;;;;;11.20;6.20;;;13.90;99.90;;;;;;5011582;28;20173;-74
2023/04/28 09:11:59;;;;;;;7.80;6.00;;;13.90;99.90;;;;;;5011207;28;20694;-74
2023/04/28 09:14:31;;;;;;;8.30;5.80;;;14.00;99.90;;;;;;5011509;28;20165;-74
2023/04/28 09:16:57;;;;;;;9.43;6.83;;;14.10;99.90;;;;;;5011655;28;20216;-74
2023/04/28 09:19:23;;;;;;;9.27;6.30;;;14.10;99.90;;;;;;5010270;28;20205;-76
2023/04/28 09:21:52;;;;;;;8.30;6.10;;;14.10;99.90;;;;;;5029899;28;20192;-73
2023/04/28 09:24:35;;;;;;;11.37;6.17;;;14.20;99.90;;;;;;5031150;28;20220;-75
2023/04/28 09:27:03;;;;;;;9.00;6.17;;;14.20;99.90;;;;;;5031072;28;20184;-74
2023/04/28 09:29:32;;;;;;;10.77;6.70;;;14.20;99.90;;;;;;5029921;28;20243;-74
2023/04/28 09:32:14;;;;;;;11.07;6.90;;;14.20;99.90;;;;;;5029829;28;20276;-74
2023/04/28 09:34:45;;;;;;;10.07;6.80;;;14.20;99.90;;;;;;5031124;28;20172;-76
2023/04/28 09:37:22;;;;;;;10.93;6.90;;;14.30;99.90;;;;;;5030876;28;20197;-76
2023/04/28 09:39:49;;;;;;;9.97;6.90;;;14.30;99.90;;;;;;5020582;28;20203;-76
2023/04/28 09:42:41;;;;;;;10.43;6.57;;;14.30;99.90;;;;;;5029585;28;20180;-76
2023/04/28 09:45:07;;;;;;;14.50;7.47;;;14.40;99.90;;;;;;5030779;28;20160;-77
2023/04/28 09:47:39;;;;;;;12.90;7.47;;;14.40;99.90;;;;;;5030830;28;20168;-77
2023/04/28 09:50:08;;;;;;;13.07;7.73;;;14.30;99.90;;;;;;5029829;28;20546;-77
2023/04/28 09:52:34;;;;;;;12.07;7.50;;;14.30;99.90;;;;;;5014673;28;20275;-77
2023/04/28 09:55:02;;;;;;;10.97;7.37;;;14.30;99.90;;;;;;5009794;28;20596;-77
2023/04/28 09:57:33;;;;;;;10.70;7.20;;;14.40;99.90;;;;;;5010402;28;20271;-77
2023/04/28 09:59:59;;;;;;;10.17;7.53;;;14.50;99.90;;;;;;5012270;28;20165;-77
2023/04/28 10:02:26;;;;;;;11.40;7.07;;;14.50;99.90;;;;;;5024869;28;20211;-78
2023/04/28 10:04:51;;;;;;;11.07;7.20;;;14.50;99.90;;;;;;5029877;28;20673;-77
2023/04/28 10:07:19;;;;;;;9.40;6.70;;;14.60;99.90;;;;;;5030873;28;20241;-75
2023/04/28 10:09:49;;;;;;;10.80;6.70;;;14.60;99.90;;;;;;5029296;28;20177;-75
2023/04/28 10:12:19;;;;;;;9.83;6.67;;;14.60;99.90;;;;;;5018312;28;20661;-75
2023/04/28 10:14:49;;;;;;;8.47;7.00;;;14.60;99.90;;;;;;5010675;28;20260;-74
2023/04/28 10:17:15;;;;;;;10.73;6.27;;;14.50;99.90;;;;;;5010663;28;20270;-75
2023/04/28 10:19:43;;;;;;;7.20;6.33;;;14.60;99.90;;;;;;5010934;28;20197;-74
2023/04/28 10:22:39;;;;;;;10.23;7.40;;;14.60;99.90;;;;;;5018919;28;20279;-74
2023/04/28 10:25:10;;;;;;;9.47;6.90;;;14.50;99.90;;;;;;5030654;28;20192;-73
2023/04/28 10:27:38;;;;;;;13.53;6.83;;;14.50;99.90;;;;;;5030551;28;20265;-74
2023/04/28 10:30:18;;;;;;;8.57;6.73;;;14.60;99.90;;;;;;5028991;28;20177;-75
2023/04/28 10:32:47;;;;;;;8.00;7.20;;;14.60;99.90;;;;;;5013857;28;20192;-77
2023/04/28 10:35:28;;;;;;;10.67;7.67;;;14.60;99.90;;;;;;5010234;28;20165;-76
2023/04/28 10:38:09;;;;;;;12.53;7.70;;;14.60;99.90;;;;;;5009646;28;20224;-75
2023/04/28 10:40:43;;;;;;;12.50;8.03;;;14.60;99.90;;;;;;5010209;28;20232;-76
2023/04/28 10:43:13;;;;;;;9.93;8.03;;;14.60;99.90;;;;;;5010025;28;20174;-76
2023/04/28 10:45:51;;;;;;;10.30;8.30;;;14.60;99.90;;;;;;5010067;28;20189;-76
2023/04/28 10:48:18;;;;;;;10.00;7.73;;;14.60;99.90;;;;;;5008812;28;20553;-76
2023/04/28 10:51:05;;;;;;;11.23;8.60;;;14.70;99.90;;;;;;5008749;28;20529;-76
2023/04/28 10:53:47;;;;;;;16.73;9.87;;;14.70;99.90;;;;;;5009971;28;20185;-76
2023/04/28 10:56:21;;;;;;;10.50;9.37;;;14.70;99.90;;;;;;5010017;28;20301;-76
2023/04/28 10:58:54;;;;;;;11.77;8.80;;;14.70;99.90;;;;;;5010655;28;20287;-76
2023/04/28 11:01:33;;;;;;;14.53;10.63;;;14.70;99.90;;;;;;5008620;28;20199;-76
2023/04/28 11:04:10;;;;;;;9.73;8.73;;;14.60;99.90;;;;;;5010050;28;20621;-76
2023/04/28 11:06:40;;;;;;;9.87;8.83;;;14.60;99.90;;;;;;5009695;28;20188;-75
2023/04/28 11:09:11;;;;;;;12.07;9.77;;;14.60;99.90;;;;;;5008491;28;20172;-75
2023/04/28 11:11:38;;;;;;;13.63;9.30;;;14.60;99.90;;;;;;5008299;28;20181;-76
2023/04/28 11:14:19;;;;;;;12.67;10.53;;;14.60;99.90;;;;;;5008796;28;20555;-76
2023/04/28 11:16:59;;;;;;;13.00;9.80;;;14.70;99.90;;;;;;5009413;28;20542;-76
2023/04/28 11:19:27;;;;;;;11.13;9.80;;;14.70;99.90;;;;;;5009597;28;20766;-76
2023/04/28 11:21:55;;;;;;;11.63;8.50;;;14.70;99.90;;;;;;5009872;28;20507;-76
2023/04/28 11:24:21;;;;;;;10.33;9.23;;;14.80;99.90;;;;;;5009640;28;20251;-76
2023/04/28 11:26:47;;;;;;;14.57;9.47;;;14.70;99.90;;;;;;5010468;28;20686;-78
2023/04/28 11:29:16;;;;;;;11.53;10.13;;;14.70;99.90;;;;;;5009736;28;20196;-77
2023/04/28 11:31:51;;;;;;;11.37;9.83;;;14.70;99.90;;;;;;5010097;28;20225;-78
2023/04/28 11:34:21;;;;;;;11.90;9.83;;;14.70;99.90;;;;;;5026965;28;20172;-78
2023/04/28 11:36:46;;;;;;;14.43;10.53;;;14.70;99.90;;;;;;5009874;28;20251;-78
2023/04/28 11:39:13;;;;;;;14.03;11.33;;;14.70;99.90;;;;;;5011357;28;20203;-77
2023/04/28 11:41:39;;;;;;;14.57;10.97;;;14.70;99.90;;;;;;5011211;28;20180;-77
2023/04/28 11:44:16;;;;;;;11.63;10.37;;;14.70;99.90;;;;;;5011966;28;20250;-80
2023/04/28 11:46:59;;;;;;;12.13;10.83;;;14.70;99.90;;;;;;5010867;28;20185;-78
2023/04/28 11:49:27;;;;;;;12.67;11.20;;;14.70;99.90;;;;;;5009923;28;20176;-78
2023/04/28 11:51:54;;;;;;;17.33;12.07;;;14.70;99.90;;;;;;5010134;28;20307;-76
2023/04/28 11:54:24;;;;;;;13.23;11.83;;;14.70;99.90;;;;;;5009977;28;20620;-76
2023/04/28 11:56:51;;;;;;;14.50;11.43;;;14.70;99.90;;;;;;5009254;28;20224;-77
2023/04/28 11:59:19;;;;;;;15.63;12.13;;;14.70;99.90;;;;;;5009098;28;20273;-77
2023/04/28 12:01:46;;;;;;;14.33;11.53;;;14.70;99.90;;;;;;5009301;28;20169;-76
2023/04/28 12:04:12;;;;;;;13.10;11.80;;;14.70;99.90;;;;;;5009478;28;20300;-77
2023/04/28 12:06:39;;;;;;;14.63;11.70;;;14.80;99.90;;;;;;5014986;28;20193;-79
2023/04/28 12:09:16;;;;;;;14.47;12.17;;;14.90;99.90;;;;;;5014159;28;20181;-78
2023/04/28 12:12:02;;;;;;;13.47;11.80;;;15.00;99.90;;;;;;5013619;28;20192;-78
2023/04/28 12:14:28;;;;;;;13.63;12.10;;;15.10;99.90;;;;;;5012877;28;20169;-79
2023/04/28 12:16:55;;;;;;;13.33;10.73;;;15.20;99.90;;;;;;5011803;28;20219;-77
2023/04/28 12:19:21;;;;;;;13.87;11.27;;;15.30;99.90;;;;;;5009440;28;20193;-77
2023/04/28 12:22:04;;;;;;;12.20;10.90;;;15.30;99.90;;;;;;5009376;28;20184;-77
2023/04/28 12:24:30;;;;;;;15.53;10.97;;;15.40;99.90;;;;;;5008287;28;20169;-77
2023/04/28 12:27:14;;;;;;;11.33;10.23;;;15.40;99.90;;;;;;5008005;28;20583;-78
2023/04/28 12:29:41;;;;;;;10.77;9.67;;;15.50;99.90;;;;;;5013086;28;20153;-77
2023/04/28 12:32:08;;;;;;;11.53;10.33;;;15.50;99.90;;;;;;5011345;28;20276;-77
2023/04/28 12:34:35;;;;;;;10.27;9.23;;;15.60;99.90;;;;;;5012655;28;20177;-77
2023/04/28 12:37:02;;;;;;;12.47;10.47;;;15.70;99.90;;;;;;5012618;28;20193;-77
2023/04/28 12:39:28;;;;;;;10.63;9.53;;;15.80;99.90;;;;;;5011048;28;20280;-77
2023/04/28 12:41:54;;;;;;;10.93;9.53;;;15.80;99.90;;;;;;5011168;28;20679;-77
2023/04/28 12:44:21;;;;;;;10.83;9.83;;;16.10;99.90;;;;;;5012338;28;20267;-79